Poston, Arizona
Current Conditions -  °F | °C
As of 1:52 AM on Thursday 23 Oct 2014 (Local Time) from KBLH Reporting Station
Clear Clear  
Wind Chill: 70°   Ceiling: Unl
Heat Index: 70°   Visibility: 10mi
Dew Point: 41°   Wind: 3mph
Humidity: 35%   Direction: 320°NW
Pressure: 29.93"   Gusts: NA
Location:  33.96°N, 114.42°W
Report Text: KBLH 230852Z AUTO 32003KT 10SM CLR 21/05 A2993 RMK AO2 SLP129 T02110050 53004
Loading
Personal Weather Stations






























Interactive Weather Map
Tropical Storm Tracking
New forecast layout! Learn more

10-Day Weather Forecast

Advertisements
Track Severe Weather on mobile